createdAt,value
2022-08-17T00:02:26.167Z,23.65
2022-08-17T00:05:32.959Z,23.55
2022-08-17T00:08:38.308Z,23.44
2022-08-17T00:12:41.175Z,23.38
2022-08-17T00:15:10.404Z,23.43
2022-08-17T00:19:06.566Z,23.48
2022-08-17T00:25:04.163Z,23.59
2022-08-17T00:28:09.525Z,23.60
2022-08-17T00:31:15.741Z,23.58
2022-08-17T00:34:21.818Z,23.66
2022-08-17T00:37:27.785Z,23.63
2022-08-17T00:40:39.786Z,23.49
2022-08-17T00:43:50.210Z,23.43
2022-08-17T00:46:55.518Z,23.36
2022-08-17T00:50:00.991Z,23.21
2022-08-17T00:53:07.033Z,23.28
2022-08-17T00:56:12.964Z,23.35
2022-08-17T00:59:21.281Z,23.34
2022-08-17T01:02:26.671Z,23.38
2022-08-17T01:05:31.931Z,23.46
2022-08-17T01:08:37.843Z,23.51
2022-08-17T01:11:43.053Z,23.48
2022-08-17T01:14:48.365Z,23.41
2022-08-17T01:17:54.004Z,23.44
2022-08-17T01:20:59.974Z,23.42
2022-08-17T01:24:05.842Z,23.40
2022-08-17T01:27:11.442Z,23.46
2022-08-17T01:30:57.215Z,23.46
2022-08-17T01:33:42.367Z,23.34
2022-08-17T01:36:48.122Z,23.31
2022-08-17T01:39:53.615Z,23.38
2022-08-17T01:42:59.065Z,23.45
2022-08-17T01:46:04.880Z,23.52
2022-08-17T01:49:10.380Z,23.53
2022-08-17T01:52:16.182Z,23.48
2022-08-17T01:55:27.105Z,23.33
2022-08-17T01:58:33.177Z,23.27
2022-08-17T02:01:38.888Z,23.20
2022-08-17T02:04:45.361Z,23.14
2022-08-17T02:08:00.619Z,22.89
2022-08-17T02:11:08.954Z,22.82
2022-08-17T02:14:20.043Z,22.92
2022-08-17T02:17:26.565Z,22.88
2022-08-17T02:20:42.188Z,22.80
2022-08-17T02:23:48.462Z,22.63
2022-08-17T02:26:53.968Z,22.31
2022-08-17T02:30:00.029Z,22.11
2022-08-17T02:33:06.404Z,22.00
2022-08-17T02:36:15.438Z,21.83
2022-08-17T02:39:20.928Z,21.65
2022-08-17T02:42:28.298Z,21.48
2022-08-17T02:45:34.106Z,21.34
2022-08-17T02:48:40.049Z,21.21
2022-08-17T02:51:45.627Z,21.09
2022-08-17T02:54:51.232Z,20.98
2022-08-17T02:57:56.340Z,20.85
2022-08-17T03:01:03.496Z,20.76
2022-08-17T03:04:08.735Z,20.66
2022-08-17T03:07:15.427Z,20.63
2022-08-17T03:10:21.666Z,20.55
2022-08-17T03:13:27.340Z,20.58
2022-08-17T03:16:33.079Z,20.55
2022-08-17T03:19:42.895Z,20.55
2022-08-17T03:22:53.197Z,20.53
2022-08-17T03:25:59.464Z,20.51
2022-08-17T03:29:05.119Z,20.51
2022-08-17T03:32:10.682Z,20.49
2022-08-17T03:35:16.435Z,20.51
2022-08-17T03:38:24.537Z,20.53
2022-08-17T03:41:31.216Z,20.62
2022-08-17T03:44:36.631Z,20.70
2022-08-17T03:48:00.088Z,20.72
2022-08-17T03:51:23.154Z,20.70
2022-08-17T03:54:46.213Z,20.73
2022-08-17T03:57:51.407Z,20.78
2022-08-17T04:00:58.740Z,20.80
2022-08-17T04:04:04.398Z,20.82
2022-08-17T04:07:09.995Z,20.82
2022-08-17T04:10:15.808Z,20.82
2022-08-17T04:13:24.077Z,20.86
2022-08-17T04:16:30.916Z,20.94
2022-08-17T04:19:39.404Z,21.01
2022-08-17T04:22:45.123Z,21.08
2022-08-17T04:25:54.287Z,21.12
2022-08-17T04:29:00.547Z,21.16
2022-08-17T04:32:06.411Z,21.33
2022-08-17T04:38:35.757Z,21.62
2022-08-17T04:42:04.475Z,21.90
2022-08-17T04:45:09.937Z,22.19
2022-08-17T04:48:15.586Z,22.33
2022-08-17T04:51:21.076Z,22.41
2022-08-17T04:54:26.783Z,22.59
2022-08-17T04:57:38.467Z,22.78
2022-08-17T05:00:47.816Z,22.94
2022-08-17T05:03:53.228Z,23.04
2022-08-17T05:06:59.079Z,23.03
2022-08-17T05:10:05.966Z,23.12
2022-08-17T05:13:11.356Z,23.28
2022-08-17T05:16:16.856Z,23.44
2022-08-17T05:19:22.562Z,23.64
2022-08-17T05:22:27.986Z,23.76
2022-08-17T05:25:34.537Z,23.76
2022-08-17T05:28:42.696Z,23.78
2022-08-17T05:32:38.614Z,23.79
2022-08-17T05:35:39.673Z,23.89
2022-08-17T05:38:45.483Z,23.92
2022-08-17T05:41:51.191Z,23.93
2022-08-17T05:44:56.846Z,23.99
2022-08-17T05:48:02.351Z,24.02
2022-08-17T05:51:07.904Z,24.08
2022-08-17T05:54:13.604Z,24.31
2022-08-17T05:57:20.977Z,24.63
2022-08-17T06:00:30.568Z,24.85
2022-08-17T06:03:36.723Z,24.95
2022-08-17T06:06:42.234Z,25.02
2022-08-17T06:09:47.772Z,25.06
2022-08-17T06:12:53.653Z,25.17
2022-08-17T06:15:59.323Z,25.27
2022-08-17T06:19:11.695Z,25.39
2022-08-17T06:22:17.356Z,25.56
2022-08-17T06:25:22.917Z,25.66
2022-08-17T06:28:28.666Z,25.70
2022-08-17T06:31:33.842Z,25.86
2022-08-17T06:34:39.345Z,25.98
2022-08-17T06:37:44.541Z,26.01
2022-08-17T06:40:52.083Z,26.05
2022-08-17T06:43:57.486Z,26.08
2022-08-17T06:47:03.297Z,26.13
2022-08-17T06:50:08.583Z,26.19
2022-08-17T06:53:14.852Z,26.20
2022-08-17T06:56:20.632Z,26.22
2022-08-17T06:59:26.364Z,26.35
2022-08-17T07:02:53.536Z,26.46
2022-08-17T07:06:05.328Z,26.63
2022-08-17T07:09:11.054Z,26.71
2022-08-17T07:12:16.528Z,26.71
2022-08-17T07:15:22.232Z,26.79
2022-08-17T07:18:27.858Z,26.70
2022-08-17T07:21:34.638Z,26.79
2022-08-17T07:24:42.033Z,26.88
2022-08-17T07:27:51.191Z,26.91
2022-08-17T07:30:57.315Z,26.79
2022-08-17T07:34:02.770Z,26.92
2022-08-17T07:37:08.585Z,27.14
2022-08-17T07:40:15.456Z,27.36
2022-08-17T07:43:23.918Z,27.65
2022-08-17T07:46:47.874Z,27.80
2022-08-17T07:49:53.303Z,27.92
2022-08-17T07:52:59.314Z,28.12
2022-08-17T07:56:05.125Z,28.21
2022-08-17T07:59:10.499Z,28.23
2022-08-17T08:02:17.595Z,28.21
2022-08-17T08:05:49.744Z,28.22
2022-08-17T08:08:56.819Z,28.37
2022-08-17T08:12:03.373Z,28.40
2022-08-17T08:15:09.416Z,28.52
2022-08-17T08:18:15.537Z,28.78
2022-08-17T08:21:43.356Z,29.06
2022-08-17T08:24:48.853Z,29.26
2022-08-17T08:31:18.164Z,29.49
2022-08-17T08:34:58.563Z,29.37
2022-08-17T08:41:16.495Z,29.21
2022-08-17T08:45:00.973Z,29.13
2022-08-17T08:47:58.144Z,29.24
2022-08-17T08:51:11.286Z,29.37
2022-08-17T08:54:16.618Z,29.32
2022-08-17T08:57:33.691Z,29.02
2022-08-17T09:00:39.418Z,28.91
2022-08-17T09:03:52.877Z,28.90
2022-08-17T09:06:58.638Z,28.98
2022-08-17T09:10:03.986Z,29.21
2022-08-17T09:13:10.556Z,29.52
2022-08-17T09:16:16.669Z,29.52
2022-08-17T09:19:23.555Z,29.48
2022-08-17T09:22:31.660Z,29.34
2022-08-17T09:25:37.048Z,29.16
2022-08-17T09:28:42.932Z,29.05
2022-08-17T09:31:49.606Z,29.22
2022-08-17T09:34:56.179Z,29.34
2022-08-17T09:38:02.900Z,29.36
2022-08-17T09:41:09.986Z,29.41
2022-08-17T09:44:23.090Z,29.65
2022-08-17T09:47:35.612Z,29.76
2022-08-17T09:50:55.311Z,29.67
2022-08-17T09:54:37.044Z,29.58
2022-08-17T09:57:36.809Z,29.42
2022-08-17T10:00:42.472Z,29.22
2022-08-17T10:03:51.061Z,28.95
2022-08-17T10:06:58.212Z,28.64
2022-08-17T10:10:03.956Z,28.46
2022-08-17T10:13:09.789Z,28.44
2022-08-17T10:16:15.016Z,28.52
2022-08-17T10:19:20.195Z,28.62
2022-08-17T10:22:43.112Z,28.62
2022-08-17T10:26:08.690Z,28.69
2022-08-17T10:29:14.798Z,28.60
2022-08-17T10:32:20.454Z,28.47
2022-08-17T10:35:26.275Z,28.45
2022-08-17T10:38:32.130Z,28.43
2022-08-17T10:41:40.482Z,28.41
2022-08-17T10:44:47.462Z,28.29
2022-08-17T10:48:09.016Z,27.96
2022-08-17T10:51:15.033Z,27.79
2022-08-17T10:54:20.673Z,27.85
2022-08-17T10:57:25.899Z,27.77
2022-08-17T11:00:31.570Z,27.58
2022-08-17T11:03:36.965Z,27.28
2022-08-17T11:06:42.717Z,27.11
2022-08-17T11:09:48.140Z,27.12
2022-08-17T11:13:17.792Z,27.16
2022-08-17T11:16:23.438Z,27.18
2022-08-17T11:19:28.949Z,27.25
2022-08-17T11:22:35.255Z,27.25
2022-08-17T11:25:40.910Z,27.19
2022-08-17T11:28:48.754Z,27.27
2022-08-17T11:31:58.563Z,27.30
2022-08-17T11:35:04.852Z,27.32
2022-08-17T11:38:15.854Z,27.52
2022-08-17T11:41:22.047Z,27.57
2022-08-17T11:44:37.874Z,27.53
2022-08-17T11:48:25.956Z,27.57
2022-08-17T11:51:35.279Z,27.71
2022-08-17T11:54:40.712Z,27.58
2022-08-17T11:57:46.203Z,27.77
2022-08-17T12:00:54.835Z,27.91
2022-08-17T12:04:03.953Z,27.93
2022-08-17T12:07:09.706Z,27.66
2022-08-17T12:10:17.285Z,27.61
2022-08-17T12:13:23.870Z,27.60
2022-08-17T12:16:36.470Z,27.57
2022-08-17T12:19:42.794Z,27.74
2022-08-17T12:22:47.982Z,27.80
2022-08-17T12:25:54.581Z,27.90
2022-08-17T12:29:01.149Z,27.89
2022-08-17T12:32:07.228Z,28.03
2022-08-17T12:35:12.553Z,28.06
2022-08-17T12:38:32.585Z,28.02
2022-08-17T12:41:39.217Z,27.95
2022-08-17T12:44:49.768Z,27.99
2022-08-17T12:47:56.617Z,27.87
2022-08-17T12:51:03.141Z,27.77
2022-08-17T12:54:12.001Z,27.84
2022-08-17T12:57:17.470Z,28.03
2022-08-17T13:00:23.434Z,27.98
2022-08-17T13:03:37.806Z,27.82
2022-08-17T13:06:43.469Z,27.80
2022-08-17T13:09:49.254Z,27.93
2022-08-17T13:12:54.859Z,28.22
2022-08-17T13:16:00.781Z,28.38
2022-08-17T13:19:06.998Z,28.52
2022-08-17T13:22:12.929Z,28.51
2022-08-17T13:25:18.753Z,28.45
2022-08-17T13:28:35.523Z,28.37
2022-08-17T13:31:51.829Z,28.47
2022-08-17T13:35:12.362Z,28.41
2022-08-17T13:38:20.482Z,28.24
2022-08-17T13:41:26.011Z,28.14
2022-08-17T13:44:31.850Z,28.13
2022-08-17T13:47:37.696Z,28.16
2022-08-17T13:50:42.956Z,28.13
2022-08-17T13:53:51.418Z,28.24
2022-08-17T13:56:57.692Z,28.43
2022-08-17T14:00:03.810Z,28.51
2022-08-17T14:03:09.571Z,28.38
2022-08-17T14:06:51.623Z,28.31
2022-08-17T14:09:45.896Z,28.36
2022-08-17T14:12:52.791Z,28.34
2022-08-17T14:15:58.442Z,28.42
2022-08-17T14:19:04.401Z,28.43
2022-08-17T14:22:10.125Z,28.38
2022-08-17T14:25:16.242Z,28.26
2022-08-17T14:28:23.492Z,28.33
2022-08-17T14:31:37.230Z,28.43
2022-08-17T14:34:43.214Z,28.38
2022-08-17T14:37:50.064Z,28.29
2022-08-17T14:40:56.217Z,28.17
2022-08-17T14:44:01.546Z,28.09
2022-08-17T14:47:06.755Z,28.18
2022-08-17T14:50:13.319Z,28.19
2022-08-17T14:53:25.255Z,28.14
2022-08-17T14:56:31.681Z,28.07
2022-08-17T14:59:46.655Z,28.05
2022-08-17T15:02:53.856Z,28.11
2022-08-17T15:05:59.691Z,28.31
2022-08-17T15:09:05.044Z,28.37
2022-08-17T15:12:12.681Z,28.36
2022-08-17T15:15:18.124Z,28.29
2022-08-17T15:18:25.063Z,28.29
2022-08-17T15:21:31.193Z,28.23
2022-08-17T15:24:36.573Z,28.23
2022-08-17T15:27:42.257Z,28.33
2022-08-17T15:30:51.468Z,28.45
2022-08-17T15:33:56.919Z,28.60
2022-08-17T15:37:02.380Z,28.90
2022-08-17T15:40:08.661Z,29.19
2022-08-17T15:43:14.302Z,29.52
2022-08-17T15:46:19.641Z,29.90
2022-08-17T15:49:25.887Z,30.15
2022-08-17T15:52:31.503Z,30.38
2022-08-17T15:55:38.459Z,30.51
2022-08-17T15:58:44.299Z,30.64
2022-08-17T16:03:14.560Z,30.66
2022-08-17T16:05:15.888Z,30.80
2022-08-17T16:08:24.780Z,31.08
2022-08-17T16:11:30.114Z,31.00
2022-08-17T16:14:36.370Z,31.01
2022-08-17T16:17:42.468Z,31.02
2022-08-17T16:20:49.263Z,30.91
2022-08-17T16:23:55.657Z,30.97
2022-08-17T16:27:01.384Z,31.02
2022-08-17T16:30:06.836Z,30.94
2022-08-17T16:33:12.510Z,30.87
2022-08-17T16:36:18.552Z,30.59
2022-08-17T16:39:24.436Z,30.15
2022-08-17T16:42:30.959Z,29.67
2022-08-17T16:45:40.323Z,29.29
2022-08-17T16:48:46.869Z,29.03
2022-08-17T16:51:52.379Z,28.70
2022-08-17T16:54:57.828Z,28.38
2022-08-17T16:58:03.792Z,28.19
2022-08-17T17:01:09.475Z,27.97
2022-08-17T17:04:14.929Z,27.90
2022-08-17T17:07:20.534Z,27.75
2022-08-17T17:10:26.194Z,27.72
2022-08-17T17:13:32.398Z,27.73
2022-08-17T17:16:37.866Z,27.65
2022-08-17T17:20:05.292Z,27.51
2022-08-17T17:23:11.573Z,27.47
2022-08-17T17:26:18.373Z,27.39
2022-08-17T17:29:24.204Z,27.26
2022-08-17T17:32:29.845Z,27.09
2022-08-17T17:35:35.327Z,27.00
2022-08-17T17:38:40.638Z,26.85
2022-08-17T17:41:47.223Z,26.73
2022-08-17T17:44:52.902Z,26.60
2022-08-17T17:47:58.419Z,26.48
2022-08-17T17:51:05.254Z,26.46
2022-08-17T17:54:10.570Z,26.37
2022-08-17T17:57:17.831Z,26.27
2022-08-17T18:00:23.672Z,26.15
2022-08-17T18:03:29.482Z,26.11
2022-08-17T18:06:35.548Z,26.05
2022-08-17T18:09:41.521Z,25.98
2022-08-17T18:12:53.271Z,25.91
2022-08-17T18:16:01.110Z,25.82
2022-08-17T18:19:06.810Z,25.75
2022-08-17T18:22:14.374Z,25.65
2022-08-17T18:25:20.573Z,25.54
2022-08-17T18:28:26.211Z,25.47
2022-08-17T18:31:31.775Z,25.43
2022-08-17T18:34:46.981Z,25.33
2022-08-17T18:37:53.926Z,25.23
2022-08-17T18:40:59.530Z,25.12
2022-08-17T18:44:05.137Z,25.03
2022-08-17T18:47:10.552Z,24.96
2022-08-17T18:50:16.022Z,24.85
2022-08-17T18:53:21.266Z,24.74
2022-08-17T18:56:32.289Z,24.60
2022-08-17T18:59:55.244Z,24.47
2022-08-17T19:03:00.749Z,24.34
2022-08-17T19:06:06.444Z,24.21
2022-08-17T19:09:11.910Z,24.07
2022-08-17T19:12:17.775Z,23.94
2022-08-17T19:15:23.611Z,23.83
2022-08-17T19:18:29.065Z,23.70
2022-08-17T19:21:34.613Z,23.55
2022-08-17T19:24:47.874Z,23.43
2022-08-17T19:27:57.209Z,23.32
2022-08-17T19:31:05.030Z,23.24
2022-08-17T19:34:10.750Z,23.16
2022-08-17T19:37:16.436Z,23.07
2022-08-17T19:40:50.671Z,23.00
2022-08-17T19:43:48.198Z,23.05
2022-08-17T19:47:09.977Z,23.23
2022-08-17T19:50:17.313Z,23.28
2022-08-17T19:53:23.463Z,23.22
2022-08-17T19:56:31.943Z,23.18
2022-08-17T19:59:37.305Z,23.11
2022-08-17T20:02:43.170Z,23.04
2022-08-17T20:06:11.489Z,23.02
2022-08-17T20:09:15.445Z,22.92
2022-08-17T20:12:24.244Z,22.86
2022-08-17T20:15:30.067Z,22.80
2022-08-17T20:18:36.370Z,22.72
2022-08-17T20:21:42.045Z,22.67
2022-08-17T20:24:47.422Z,22.60
2022-08-17T20:27:53.175Z,22.51
2022-08-17T20:31:09.065Z,22.49
2022-08-17T20:34:14.983Z,22.41
2022-08-17T20:37:20.892Z,22.28
2022-08-17T20:40:27.274Z,22.17
2022-08-17T20:43:32.783Z,22.09
2022-08-17T20:46:38.152Z,22.02
2022-08-17T20:49:44.597Z,21.96
2022-08-17T20:52:50.891Z,21.89
2022-08-17T20:55:56.603Z,21.85
2022-08-17T20:59:02.206Z,21.78
2022-08-17T21:02:17.522Z,21.66
2022-08-17T21:05:30.034Z,21.61
2022-08-17T21:08:36.212Z,21.57
2022-08-17T21:12:02.654Z,21.51
2022-08-17T21:15:08.620Z,21.47
2022-08-17T21:18:14.361Z,21.43
2022-08-17T21:21:19.515Z,21.39
2022-08-17T21:24:25.270Z,21.36
2022-08-17T21:27:31.088Z,21.33
2022-08-17T21:30:36.773Z,21.29
2022-08-17T21:33:48.689Z,21.23
2022-08-17T21:36:54.085Z,21.19
2022-08-17T21:40:01.649Z,21.13
2022-08-17T21:43:08.483Z,21.08
2022-08-17T21:46:14.094Z,21.03
2022-08-17T21:49:19.671Z,20.98
2022-08-17T21:52:25.284Z,20.93
2022-08-17T21:55:30.817Z,20.88
2022-08-17T21:58:40.014Z,20.83
2022-08-17T22:01:45.608Z,20.77
2022-08-17T22:04:56.397Z,20.71
2022-08-17T22:08:06.449Z,20.67
2022-08-17T22:11:14.062Z,20.62
2022-08-17T22:14:21.450Z,20.59
2022-08-17T22:17:26.942Z,20.52
2022-08-17T22:20:53.837Z,20.45
2022-08-17T22:24:05.429Z,20.37
2022-08-17T22:27:11.676Z,20.29
2022-08-17T22:30:17.354Z,20.24
2022-08-17T22:33:22.706Z,20.17
2022-08-17T22:36:29.186Z,20.12
2022-08-17T22:39:35.332Z,20.06
2022-08-17T22:42:40.824Z,20.01
2022-08-17T22:45:46.912Z,19.94
2022-08-17T22:48:52.471Z,19.90
2022-08-17T22:51:57.966Z,19.85
2022-08-17T22:55:21.131Z,19.82
2022-08-17T22:58:44.402Z,19.78
2022-08-17T23:02:04.936Z,19.74
2022-08-17T23:05:10.264Z,19.72
2022-08-17T23:08:21.390Z,19.68
2022-08-17T23:11:36.994Z,19.64
2022-08-17T23:14:52.861Z,19.59
2022-08-17T23:17:58.520Z,19.57
2022-08-17T23:21:05.138Z,19.53
2022-08-17T23:24:10.701Z,19.49
2022-08-17T23:27:16.305Z,19.43
2022-08-17T23:30:27.352Z,19.34
2022-08-17T23:33:33.751Z,19.30
2022-08-17T23:36:39.342Z,19.23
2022-08-17T23:39:45.790Z,19.19
2022-08-17T23:42:51.861Z,19.13
2022-08-17T23:45:57.650Z,19.08
2022-08-17T23:49:06.174Z,19.04
2022-08-17T23:52:14.994Z,18.99
2022-08-17T23:55:22.305Z,18.95
2022-08-17T23:58:28.763Z,18.99
